Time;durP1;ratioP1;P1;durP2;ratioP2;P2;SDS_P1;SDS_P2;PMS_P1;PMS_P2;Temp;Humidity;BMP_temperature;BMP_pressure;BME280_temperature;BME280_humidity;BME280_pressure;Samples;Min_cycle;Max_cycle;Signal;HPM_P1;HPM_P2
2023/06/15 00:00:24;;;;;;;7.68;2.60;;;17.00;99.90;;;;;;4998958;28;20050;-66
2023/06/15 00:02:51;;;;;;;9.23;2.90;;;16.90;99.90;;;;;;5002232;28;20057;-67
2023/06/15 00:05:17;;;;;;;7.43;2.45;;;16.90;99.90;;;;;;5000633;28;20103;-66
2023/06/15 00:07:43;;;;;;;9.60;2.78;;;16.80;99.90;;;;;;5004223;28;20038;-66
2023/06/15 00:10:10;;;;;;;6.25;2.63;;;16.80;99.90;;;;;;5003489;28;20137;-66
2023/06/15 00:12:36;;;;;;;5.90;2.53;;;16.80;99.90;;;;;;4998955;28;20125;-66
2023/06/15 00:15:03;;;;;;;7.45;2.65;;;16.70;99.90;;;;;;5002123;28;20116;-66
2023/06/15 00:17:31;;;;;;;7.68;2.80;;;16.70;99.90;;;;;;5011961;28;20060;-66
2023/06/15 00:20:00;;;;;;;7.03;2.90;;;16.60;99.90;;;;;;5030867;28;20494;-66
2023/06/15 00:22:26;;;;;;;8.40;2.60;;;16.70;99.90;;;;;;5002853;28;20049;-66
2023/06/15 00:24:55;;;;;;;6.28;2.53;;;16.60;99.90;;;;;;5001092;28;20104;-66
2023/06/15 00:27:21;;;;;;;6.88;2.60;;;16.60;99.90;;;;;;5004216;28;20057;-66
2023/06/15 00:29:46;;;;;;;4.93;2.33;;;16.50;99.90;;;;;;4988955;28;20108;-66
2023/06/15 00:32:12;;;;;;;7.07;2.60;;;16.50;99.90;;;;;;5003441;28;20038;-66
2023/06/15 00:34:38;;;;;;;8.18;2.92;;;16.40;99.90;;;;;;5001324;28;20526;-66
2023/06/15 00:37:05;;;;;;;9.32;3.00;;;16.40;99.90;;;;;;4998454;28;20070;-66
2023/06/15 00:39:30;;;;;;;7.60;2.55;;;16.40;99.90;;;;;;5003659;28;20060;-66
2023/06/15 00:41:56;;;;;;;7.13;2.70;;;16.30;99.90;;;;;;4997272;28;20054;-66
2023/06/15 00:44:21;;;;;;;8.23;3.03;;;16.20;99.90;;;;;;5000923;28;20124;-66
2023/06/15 00:46:48;;;;;;;7.07;2.47;;;16.20;99.90;;;;;;5000988;28;20192;-66
2023/06/15 00:49:14;;;;;;;5.85;2.28;;;16.10;99.90;;;;;;5002747;28;20149;-66
2023/06/15 00:51:41;;;;;;;9.50;2.85;;;16.10;99.90;;;;;;4982636;28;20053;-66
2023/06/15 00:54:07;;;;;;;5.55;2.85;;;16.10;99.90;;;;;;5013570;28;20119;-66
2023/06/15 00:56:34;;;;;;;7.43;2.92;;;16.10;99.90;;;;;;4997964;28;20049;-66
2023/06/15 00:59:00;;;;;;;6.95;2.95;;;16.00;99.90;;;;;;4988032;28;20528;-66
2023/06/15 01:01:26;;;;;;;7.68;3.00;;;16.00;99.90;;;;;;5001124;28;20072;-66
2023/06/15 01:03:54;;;;;;;6.68;2.60;;;16.00;99.90;;;;;;4998526;28;21748;-66
2023/06/15 01:06:24;;;;;;;8.88;3.03;;;16.00;99.90;;;;;;4995934;28;20042;-66
2023/06/15 01:08:52;;;;;;;9.57;3.22;;;15.90;99.90;;;;;;5030865;28;20056;-66
2023/06/15 01:11:18;;;;;;;7.00;3.38;;;15.90;99.90;;;;;;5015288;28;20452;-66
2023/06/15 01:13:45;;;;;;;5.72;3.17;;;15.90;99.90;;;;;;5001742;28;20049;-66
2023/06/15 01:16:18;;;;;;;6.50;3.15;;;15.90;99.90;;;;;;5001780;28;20049;-66
2023/06/15 01:18:46;;;;;;;9.90;3.20;;;15.80;99.90;;;;;;5012805;28;20054;-66
2023/06/15 01:21:13;;;;;;;6.72;3.03;;;15.80;99.90;;;;;;5018549;28;20073;-66
2023/06/15 01:23:49;;;;;;;7.80;3.05;;;15.80;99.90;;;;;;5000706;28;20241;-66
2023/06/15 01:26:17;;;;;;;6.10;2.85;;;15.80;99.90;;;;;;5002582;28;20042;-66
2023/06/15 01:28:49;;;;;;;7.82;3.13;;;15.80;99.90;;;;;;5003884;28;20052;-66
2023/06/15 01:31:17;;;;;;;7.63;3.10;;;15.80;99.90;;;;;;5001193;28;20052;-66
2023/06/15 01:33:46;;;;;;;7.53;3.42;;;15.70;99.90;;;;;;5000961;28;20124;-66
2023/06/15 01:36:12;;;;;;;10.20;3.55;;;15.70;99.90;;;;;;5001539;28;20045;-66
2023/06/15 01:38:38;;;;;;;11.13;3.88;;;15.70;99.90;;;;;;5001673;28;20046;-66
2023/06/15 01:41:08;;;;;;;6.75;3.33;;;15.70;99.90;;;;;;5034124;28;20053;-66
2023/06/15 01:43:35;;;;;;;7.82;4.22;;;15.70;99.90;;;;;;5001535;28;20041;-66
2023/06/15 01:46:03;;;;;;;7.70;3.25;;;15.70;99.90;;;;;;5002356;28;20522;-66
2023/06/15 01:48:29;;;;;;;6.47;3.00;;;15.60;99.90;;;;;;5032036;28;20046;-66
2023/06/15 01:50:56;;;;;;;8.70;3.15;;;15.60;99.90;;;;;;5032053;28;20508;-66
2023/06/15 01:53:22;;;;;;;10.18;3.50;;;15.60;99.90;;;;;;4999718;28;20540;-65
2023/06/15 01:55:48;;;;;;;8.30;3.55;;;15.60;99.90;;;;;;4997527;28;20042;-65
2023/06/15 01:58:17;;;;;;;9.70;3.10;;;15.50;99.90;;;;;;5014820;28;20042;-66
2023/06/15 02:00:44;;;;;;;6.45;3.47;;;15.50;99.90;;;;;;5028952;28;20046;-66
2023/06/15 02:03:11;;;;;;;8.55;3.50;;;15.50;99.90;;;;;;5028629;28;20053;-65
2023/06/15 02:05:39;;;;;;;9.50;3.53;;;15.50;99.90;;;;;;4999229;28;20045;-66
2023/06/15 02:08:12;;;;;;;6.68;3.22;;;15.40;99.90;;;;;;4998404;28;20030;-66
2023/06/15 02:10:39;;;;;;;9.05;3.28;;;15.40;99.90;;;;;;5001300;28;20042;-66
2023/06/15 02:13:07;;;;;;;9.27;3.63;;;15.40;99.90;;;;;;4996658;28;20507;-66
2023/06/15 02:15:33;;;;;;;7.22;3.50;;;15.30;99.90;;;;;;4998666;28;20208;-65
2023/06/15 02:18:02;;;;;;;7.65;3.60;;;15.40;99.90;;;;;;4997645;28;20058;-66
2023/06/15 02:20:28;;;;;;;9.85;3.80;;;15.30;99.90;;;;;;4994603;28;20076;-66
2023/06/15 02:22:57;;;;;;;9.27;3.97;;;15.30;99.90;;;;;;5033832;28;20783;-66
2023/06/15 02:25:24;;;;;;;7.90;4.03;;;15.30;99.90;;;;;;5033533;28;20046;-66
2023/06/15 02:27:50;;;;;;;7.28;3.80;;;15.20;99.90;;;;;;5033542;28;20053;-65
2023/06/15 02:30:16;;;;;;;9.32;3.80;;;15.20;99.90;;;;;;5003165;28;20073;-65
2023/06/15 02:32:42;;;;;;;10.30;4.07;;;15.20;99.90;;;;;;5006088;28;20042;-65
2023/06/15 02:35:11;;;;;;;8.70;4.40;;;15.20;99.90;;;;;;5036668;28;20049;-66
2023/06/15 02:37:41;;;;;;;8.57;3.92;;;15.20;99.90;;;;;;4988033;28;20046;-66
2023/06/15 02:40:08;;;;;;;8.77;3.55;;;15.20;99.90;;;;;;4999562;28;21231;-65
2023/06/15 02:42:35;;;;;;;11.98;4.40;;;15.10;99.90;;;;;;5020133;28;20041;-66
2023/06/15 02:45:02;;;;;;;11.90;4.07;;;15.10;99.90;;;;;;5031057;28;20060;-65
2023/06/15 02:47:29;;;;;;;8.00;3.70;;;15.10;99.90;;;;;;5001081;28;20042;-66
2023/06/15 02:49:58;;;;;;;10.02;3.92;;;15.00;99.90;;;;;;5032728;28;20061;-65
2023/06/15 02:52:26;;;;;;;9.90;4.15;;;15.00;99.90;;;;;;5001214;28;20041;-65
2023/06/15 02:54:52;;;;;;;10.20;3.92;;;15.00;99.90;;;;;;5003649;28;20297;-65
2023/06/15 02:57:17;;;;;;;9.13;4.30;;;15.00;99.90;;;;;;4996988;28;20572;-65
2023/06/15 02:59:44;;;;;;;8.40;4.30;;;14.90;99.90;;;;;;5033346;28;20073;-66
2023/06/15 03:02:10;;;;;;;6.47;3.60;;;14.90;99.90;;;;;;5003846;28;20088;-65
2023/06/15 03:04:44;;;;;;;8.50;4.10;;;14.90;99.90;;;;;;5002832;28;20046;-65
2023/06/15 03:07:20;;;;;;;9.30;4.13;;;14.80;99.90;;;;;;5033612;28;20046;-65
2023/06/15 03:09:52;;;;;;;7.45;3.85;;;14.80;99.90;;;;;;5037630;28;20042;-70
2023/06/15 03:12:19;;;;;;;9.48;4.25;;;14.80;99.90;;;;;;5028271;28;20853;-70
2023/06/15 03:14:49;;;;;;;8.32;4.35;;;14.70;99.90;;;;;;5020240;28;20065;-71
2023/06/15 03:17:21;;;;;;;8.10;4.05;;;14.70;99.90;;;;;;5004834;28;20509;-71
2023/06/15 03:19:47;;;;;;;12.38;4.13;;;14.70;99.90;;;;;;4998755;28;20383;-71
2023/06/15 03:22:14;;;;;;;9.00;4.10;;;14.70;99.90;;;;;;5002291;28;20565;-70
2023/06/15 03:24:42;;;;;;;10.43;4.22;;;14.70;99.90;;;;;;4995887;28;20427;-71
2023/06/15 03:27:09;;;;;;;9.38;4.35;;;14.60;99.90;;;;;;4999852;28;20054;-71
2023/06/15 03:29:36;;;;;;;10.15;4.13;;;14.60;99.90;;;;;;4999905;28;20081;-70
2023/06/15 03:32:09;;;;;;;10.45;4.57;;;14.60;99.90;;;;;;4999896;28;20081;-70
2023/06/15 03:34:38;;;;;;;10.45;4.35;;;14.60;99.90;;;;;;5006133;28;20053;-70
2023/06/15 03:37:05;;;;;;;8.38;3.92;;;14.60;99.90;;;;;;5004047;28;20128;-70
2023/06/15 03:39:31;;;;;;;11.73;4.10;;;14.60;99.90;;;;;;4996919;28;20719;-71
2023/06/15 03:41:56;;;;;;;10.18;3.97;;;14.50;99.90;;;;;;4999952;28;20081;-71
2023/06/15 03:44:22;;;;;;;9.23;4.88;;;14.50;99.90;;;;;;5001246;28;20068;-70
2023/06/15 03:46:48;;;;;;;7.65;4.07;;;14.50;99.90;;;;;;5004144;28;20125;-70
2023/06/15 03:49:14;;;;;;;6.50;3.72;;;14.50;99.90;;;;;;5027380;28;20045;-70
2023/06/15 03:51:40;;;;;;;9.23;4.50;;;14.40;99.90;;;;;;5002680;28;20530;-70
2023/06/15 03:54:05;;;;;;;7.38;4.25;;;14.40;99.90;;;;;;5003967;28;20069;-70
2023/06/15 03:56:32;;;;;;;10.32;4.53;;;14.40;99.90;;;;;;4996023;28;20046;-70
2023/06/15 03:58:58;;;;;;;10.63;4.82;;;14.40;99.90;;;;;;4998009;28;20072;-70
2023/06/15 04:01:24;;;;;;;10.73;5.50;;;14.40;99.90;;;;;;4998108;28;20045;-71
2023/06/15 04:03:54;;;;;;;11.82;5.25;;;14.40;99.90;;;;;;4995940;28;20054;-70
2023/06/15 04:06:21;;;;;;;11.02;5.72;;;14.40;99.90;;;;;;4990815;28;20046;-70
2023/06/15 04:08:47;;;;;;;9.02;4.85;;;14.40;99.90;;;;;;4995388;28;20054;-70
2023/06/15 04:11:13;;;;;;;10.18;5.30;;;14.40;99.90;;;;;;5000602;28;20089;-71
2023/06/15 04:13:40;;;;;;;10.65;5.68;;;14.40;99.90;;;;;;5003577;28;20080;-70
2023/06/15 04:16:06;;;;;;;11.05;5.20;;;14.60;99.90;;;;;;5002134;28;20062;-70
2023/06/15 04:18:32;;;;;;;11.60;5.50;;;14.50;99.90;;;;;;4998732;28;20042;-70
2023/06/15 04:20:57;;;;;;;10.55;5.43;;;14.50;99.90;;;;;;5001408;28;20089;-70
2023/06/15 04:23:23;;;;;;;10.82;4.90;;;14.50;99.90;;;;;;4989204;28;20403;-70
2023/06/15 04:25:48;;;;;;;9.32;4.72;;;14.50;99.90;;;;;;4987313;28;20134;-71
2023/06/15 04:28:16;;;;;;;8.68;4.43;;;14.60;99.90;;;;;;4990287;28;20066;-71
2023/06/15 04:30:46;;;;;;;11.90;4.75;;;14.60;99.90;;;;;;5013962;28;20045;-70
2023/06/15 04:33:12;;;;;;;7.80;4.35;;;14.60;99.90;;;;;;4984887;28;20757;-71
2023/06/15 04:35:46;;;;;;;8.45;4.22;;;14.70;99.90;;;;;;4984861;28;20046;-72
2023/06/15 04:38:15;;;;;;;10.23;3.90;;;14.80;99.90;;;;;;4989210;28;20053;-71
2023/06/15 04:40:46;;;;;;;8.98;4.65;;;15.20;99.90;;;;;;4982146;28;20382;-71
2023/06/15 04:43:11;;;;;;;7.47;3.80;;;15.50;99.90;;;;;;4987516;28;20053;-71
2023/06/15 04:45:37;;;;;;;7.72;3.85;;;15.80;99.90;;;;;;4987517;28;20045;-71
2023/06/15 04:48:03;;;;;;;7.90;3.53;;;16.10;99.90;;;;;;4986769;28;20046;-71
2023/06/15 04:50:32;;;;;;;7.72;3.60;;;16.40;99.90;;;;;;4986247;28;20045;-71
2023/06/15 04:52:58;;;;;;;9.13;3.40;;;16.70;99.90;;;;;;4970126;28;20054;-72
2023/06/15 04:55:24;;;;;;;6.70;3.40;;;17.00;99.90;;;;;;4984210;28;20046;-67
2023/06/15 04:57:50;;;;;;;9.82;3.65;;;17.30;99.90;;;;;;5015087;28;20046;-67
2023/06/15 05:00:16;;;;;;;10.30;3.92;;;17.50;99.90;;;;;;4976865;28;20380;-67
2023/06/15 05:02:43;;;;;;;9.20;3.80;;;17.80;99.90;;;;;;4984414;28;20081;-67
2023/06/15 05:05:10;;;;;;;9.38;4.10;;;18.00;99.90;;;;;;4982833;28;20913;-67
2023/06/15 05:07:36;;;;;;;13.13;4.38;;;18.20;99.90;;;;;;4981442;28;20045;-67
2023/06/15 05:10:03;;;;;;;10.82;4.13;;;18.40;99.90;;;;;;4990044;28;20052;-67
2023/06/15 05:12:29;;;;;;;6.80;3.40;;;18.60;99.90;;;;;;4991702;28;20454;-67
2023/06/15 05:14:55;;;;;;;10.40;3.78;;;18.80;99.90;;;;;;4988906;28;20052;-67
2023/06/15 05:17:20;;;;;;;10.35;3.83;;;19.00;99.90;;;;;;4984436;28;20046;-72
2023/06/15 05:19:46;;;;;;;8.52;3.95;;;19.10;99.90;;;;;;5022924;28;20038;-71
2023/06/15 05:22:12;;;;;;;8.40;4.28;;;19.20;99.90;;;;;;4987647;28;20050;-71
2023/06/15 05:24:37;;;;;;;8.40;3.92;;;19.50;99.90;;;;;;4992406;28;20407;-72
2023/06/15 05:27:03;;;;;;;9.73;3.67;;;19.70;99.90;;;;;;4980425;28;20169;-72
2023/06/15 05:29:29;;;;;;;10.27;4.88;;;19.80;99.90;;;;;;5025142;28;20179;-72
2023/06/15 05:31:55;;;;;;;9.68;3.92;;;19.90;99.90;;;;;;4983585;28;20054;-72
2023/06/15 05:34:21;;;;;;;8.38;3.92;;;19.80;99.90;;;;;;4971431;28;20042;-72
2023/06/15 05:36:47;;;;;;;7.05;3.85;;;19.60;99.90;;;;;;4984371;28;20050;-72
2023/06/15 05:39:13;;;;;;;8.18;4.00;;;19.30;99.90;;;;;;4989668;28;20076;-71
2023/06/15 05:41:38;;;;;;;9.52;3.88;;;19.10;99.90;;;;;;5003103;28;20157;-71
2023/06/15 05:44:04;;;;;;;10.77;4.15;;;18.90;99.90;;;;;;5024307;28;20658;-71
2023/06/15 05:46:30;;;;;;;8.13;4.72;;;18.80;99.90;;;;;;4985485;28;20062;-71
2023/06/15 05:48:56;;;;;;;10.32;4.47;;;18.60;99.90;;;;;;4994516;28;20042;-71
2023/06/15 05:51:21;;;;;;;8.82;4.20;;;18.50;99.90;;;;;;4991954;28;20295;-71
2023/06/15 05:53:47;;;;;;;12.30;4.30;;;18.40;99.90;;;;;;4994732;28;20069;-72
2023/06/15 05:56:13;;;;;;;8.05;3.92;;;18.30;99.90;;;;;;5002766;28;20046;-71
2023/06/15 05:58:38;;;;;;;9.73;3.88;;;18.20;99.90;;;;;;5000328;28;20077;-71
2023/06/15 06:01:05;;;;;;;10.20;3.80;;;18.20;99.90;;;;;;5028153;28;20127;-71
2023/06/15 06:03:31;;;;;;;7.32;3.67;;;18.30;99.90;;;;;;5002045;28;20049;-71
2023/06/15 06:05:56;;;;;;;9.25;3.35;;;18.60;99.90;;;;;;4997711;28;20103;-73
2023/06/15 06:08:23;;;;;;;9.98;3.03;;;18.90;99.90;;;;;;4998963;28;20522;-71
2023/06/15 06:10:49;;;;;;;8.10;3.20;;;19.30;99.90;;;;;;5004033;28;20062;-71
2023/06/15 06:13:15;;;;;;;7.47;2.90;;;19.70;99.90;;;;;;4996424;28;20042;-72
2023/06/15 06:15:41;;;;;;;7.50;3.15;;;19.90;99.90;;;;;;4995606;28;20085;-72
2023/06/15 06:18:07;;;;;;;8.43;3.20;;;20.20;99.90;;;;;;5006468;28;20042;-72
2023/06/15 06:20:32;;;;;;;5.82;2.50;;;20.50;99.90;;;;;;5006272;28;20041;-72
2023/06/15 06:22:58;;;;;;;6.45;2.38;;;20.80;99.90;;;;;;5028425;28;20095;-72
2023/06/15 06:25:24;;;;;;;6.97;2.40;;;20.80;99.70;;;;;;4995512;28;20038;-72
2023/06/15 06:27:50;;;;;;;6.35;2.42;;;20.70;99.80;;;;;;4983802;28;20041;-71
2023/06/15 06:30:15;;;;;;;13.07;2.88;;;20.50;99.80;;;;;;4997391;28;20132;-73
2023/06/15 06:32:41;;;;;;;8.45;2.25;;;20.30;99.40;;;;;;5026446;28;20042;-71
2023/06/15 06:35:07;;;;;;;6.85;2.33;;;20.10;99.30;;;;;;4991897;28;20037;-72
2023/06/15 06:37:32;;;;;;;7.70;2.20;;;20.00;99.60;;;;;;5034450;28;20112;-72
2023/06/15 06:39:59;;;;;;;6.82;2.40;;;19.90;99.20;;;;;;4994570;28;20046;-72
2023/06/15 06:42:25;;;;;;;5.53;2.30;;;19.80;98.70;;;;;;4998849;28;20041;-73
2023/06/15 06:44:51;;;;;;;12.45;1.95;;;19.70;99.00;;;;;;5034882;28;20051;-71
2023/06/15 06:47:17;;;;;;;6.15;2.40;;;19.60;99.20;;;;;;4998502;28;20041;-72
2023/06/15 06:49:42;;;;;;;10.13;2.28;;;19.60;99.00;;;;;;4998418;28;20077;-72
2023/06/15 06:52:08;;;;;;;4.13;2.08;;;19.60;99.00;;;;;;5001476;28;20042;-72
2023/06/15 06:54:34;;;;;;;8.50;2.30;;;19.50;98.70;;;;;;4998602;28;20038;-72
2023/06/15 06:57:00;;;;;;;11.15;2.30;;;19.50;98.50;;;;;;4998149;28;20034;-71
2023/06/15 06:59:26;;;;;;;7.07;2.15;;;19.50;98.70;;;;;;5002109;28;20045;-72
2023/06/15 07:01:52;;;;;;;8.27;2.20;;;19.50;98.80;;;;;;5004747;28;20437;-72
2023/06/15 07:04:17;;;;;;;7.07;2.38;;;19.50;98.70;;;;;;5033956;28;20037;-72
2023/06/15 07:06:43;;;;;;;6.95;2.28;;;19.50;99.00;;;;;;5003811;28;20064;-72
2023/06/15 07:09:09;;;;;;;6.95;1.85;;;19.50;99.00;;;;;;4983087;28;20189;-72
2023/06/15 07:11:35;;;;;;;8.02;2.50;;;19.60;99.00;;;;;;5000211;28;20054;-72
2023/06/15 07:14:03;;;;;;;7.65;2.10;;;19.60;98.70;;;;;;5026428;28;20038;-73
2023/06/15 07:16:30;;;;;;;4.90;2.30;;;19.70;99.10;;;;;;5013960;28;20042;-72
2023/06/15 07:18:56;;;;;;;7.65;2.30;;;19.80;99.00;;;;;;5000530;28;20112;-72
2023/06/15 07:21:22;;;;;;;9.98;2.22;;;19.90;99.00;;;;;;4997048;28;20069;-72
2023/06/15 07:23:47;;;;;;;9.63;2.20;;;20.00;98.80;;;;;;5036532;28;20503;-72
2023/06/15 07:26:13;;;;;;;8.50;2.22;;;20.10;98.50;;;;;;5001341;28;20131;-73
2023/06/15 07:28:39;;;;;;;5.15;2.10;;;20.30;97.00;;;;;;4998402;28;20441;-72
2023/06/15 07:31:04;;;;;;;8.93;2.25;;;20.40;97.90;;;;;;5000454;28;20034;-72
2023/06/15 07:33:30;;;;;;;6.95;2.15;;;20.50;97.50;;;;;;5000636;28;20061;-72
2023/06/15 07:35:56;;;;;;;6.15;2.10;;;20.70;97.20;;;;;;5002556;28;20041;-72
2023/06/15 07:38:22;;;;;;;10.38;2.20;;;20.80;97.30;;;;;;5005710;28;20121;-73
2023/06/15 07:40:47;;;;;;;8.93;2.42;;;21.00;97.60;;;;;;5003064;28;20042;-72
2023/06/15 07:43:13;;;;;;;6.55;2.20;;;21.10;97.30;;;;;;5001341;28;20125;-73
2023/06/15 07:45:39;;;;;;;6.65;2.15;;;21.20;96.30;;;;;;4997793;28;20045;-73
2023/06/15 07:48:05;;;;;;;7.10;2.00;;;21.30;96.80;;;;;;5002114;28;20044;-72
2023/06/15 07:50:30;;;;;;;6.18;2.30;;;21.50;96.30;;;;;;5001971;28;20049;-73
2023/06/15 07:52:56;;;;;;;6.13;2.03;;;21.60;96.60;;;;;;5000008;28;20038;-73
2023/06/15 07:55:22;;;;;;;5.93;2.33;;;21.70;96.20;;;;;;5003351;28;20137;-73
2023/06/15 07:57:48;;;;;;;5.72;1.88;;;21.80;96.60;;;;;;4995130;28;20129;-68
2023/06/15 08:00:14;;;;;;;7.78;2.60;;;21.90;95.80;;;;;;4998910;28;20176;-68
2023/06/15 08:02:40;;;;;;;7.03;2.20;;;22.00;95.00;;;;;;4995862;28;20447;-68
2023/06/15 08:05:06;;;;;;;6.65;2.33;;;22.10;95.60;;;;;;4998547;28;20125;-68
2023/06/15 08:07:31;;;;;;;6.75;2.00;;;22.30;94.50;;;;;;4998741;28;20091;-67
2023/06/15 08:09:58;;;;;;;7.30;2.30;;;22.30;95.20;;;;;;4994683;28;20176;-68
2023/06/15 08:12:23;;;;;;;5.45;2.33;;;22.40;94.30;;;;;;4994188;28;20195;-68
2023/06/15 08:14:49;;;;;;;9.82;2.30;;;22.50;92.60;;;;;;4998164;28;20714;-68
2023/06/15 08:17:15;;;;;;;8.35;2.38;;;22.60;92.80;;;;;;5028145;28;20076;-68
2023/06/15 08:19:41;;;;;;;9.60;2.35;;;22.60;92.60;;;;;;4998192;28;20265;-67
2023/06/15 08:22:07;;;;;;;6.63;2.30;;;22.70;90.90;;;;;;4999553;28;20157;-67
2023/06/15 08:24:32;;;;;;;8.65;2.40;;;22.70;91.90;;;;;;4995254;28;20042;-68
2023/06/15 08:27:00;;;;;;;6.90;2.20;;;22.80;91.40;;;;;;4993059;28;20057;-68
2023/06/15 08:29:26;;;;;;;9.05;2.40;;;22.80;91.30;;;;;;4997456;28;20065;-68
2023/06/15 08:31:51;;;;;;;5.70;2.33;;;22.90;90.70;;;;;;4994915;28;20050;-68
2023/06/15 08:34:18;;;;;;;4.72;1.95;;;22.90;87.50;;;;;;4998685;28;20108;-68
2023/06/15 08:36:43;;;;;;;6.30;2.28;;;22.90;89.40;;;;;;4998769;28;20042;-68
2023/06/15 08:39:09;;;;;;;9.40;1.98;;;22.90;90.00;;;;;;5020904;28;20796;-68
2023/06/15 08:41:38;;;;;;;6.10;2.05;;;23.00;89.30;;;;;;4990598;28;20791;-68
2023/06/15 08:44:07;;;;;;;5.68;2.20;;;23.10;90.20;;;;;;5030174;28;21799;-68
2023/06/15 08:46:33;;;;;;;5.85;2.08;;;23.20;90.20;;;;;;4997746;28;20104;-68
2023/06/15 08:48:59;;;;;;;7.05;2.05;;;23.20;88.80;;;;;;5024916;28;20427;-68
2023/06/15 08:51:25;;;;;;;6.13;2.10;;;23.30;89.60;;;;;;4997017;28;20080;-68
2023/06/15 08:53:56;;;;;;;5.70;2.33;;;23.30;89.00;;;;;;4991688;28;20164;-69
2023/06/15 08:56:22;;;;;;;6.95;1.92;;;23.40;87.50;;;;;;4996614;28;20461;-68
2023/06/15 08:58:50;;;;;;;5.15;2.20;;;23.40;82.90;;;;;;4993833;28;20042;-68
2023/06/15 09:01:23;;;;;;;9.07;2.38;;;23.40;86.20;;;;;;5020345;28;20069;-68
2023/06/15 09:03:53;;;;;;;4.30;1.98;;;23.40;82.30;;;;;;4995433;28;20034;-68
2023/06/15 09:06:20;;;;;;;7.03;2.53;;;23.40;84.70;;;;;;5024543;28;20551;-68
2023/06/15 09:08:46;;;;;;;9.25;2.10;;;23.40;84.40;;;;;;4995422;28;20722;-68
2023/06/15 09:11:12;;;;;;;6.25;2.17;;;23.50;84.70;;;;;;5023490;28;20076;-68
2023/06/15 09:13:38;;;;;;;4.75;2.00;;;23.60;84.00;;;;;;5028508;28;20451;-68
2023/06/15 09:16:07;;;;;;;6.05;2.38;;;23.60;86.00;;;;;;4997646;28;20124;-68
2023/06/15 09:18:46;;;;;;;7.35;2.20;;;23.70;85.40;;;;;;5000467;28;20042;-68
2023/06/15 09:21:16;;;;;;;7.35;1.90;;;23.70;81.70;;;;;;4990997;28;20285;-68
2023/06/15 09:23:44;;;;;;;6.15;2.30;;;23.80;81.80;;;;;;4991696;28;20054;-68
2023/06/15 09:26:23;;;;;;;5.10;2.17;;;23.80;81.10;;;;;;5027837;28;20104;-68
2023/06/15 09:28:49;;;;;;;6.65;2.28;;;23.80;81.40;;;;;;4997824;28;20050;-68
2023/06/15 09:31:32;;;;;;;6.57;2.28;;;23.80;80.30;;;;;;5006542;28;20127;-74
2023/06/15 09:34:02;;;;;;;7.68;2.22;;;23.90;82.60;;;;;;5004879;28;20049;-74
2023/06/15 09:36:44;;;;;;;7.72;2.22;;;23.90;81.80;;;;;;5032597;28;20049;-74
2023/06/15 09:39:12;;;;;;;8.55;2.58;;;23.90;82.80;;;;;;5001609;28;20767;-74
2023/06/15 09:41:56;;;;;;;6.25;2.50;;;24.00;82.10;;;;;;5030918;28;20057;-73
2023/06/15 09:44:23;;;;;;;6.32;2.25;;;24.10;83.10;;;;;;4996683;28;20419;-73
2023/06/15 09:46:51;;;;;;;5.55;2.25;;;24.10;82.30;;;;;;5003172;28;20400;-73
2023/06/15 09:49:22;;;;;;;6.10;2.25;;;24.20;82.90;;;;;;5033995;28;20121;-72
2023/06/15 09:51:52;;;;;;;9.60;2.35;;;24.30;81.90;;;;;;4999915;28;20072;-73
2023/06/15 09:54:20;;;;;;;8.95;2.45;;;24.30;82.40;;;;;;4999951;28;20977;-73
2023/06/15 09:56:48;;;;;;;7.78;2.38;;;24.40;80.80;;;;;;5011900;28;20137;-73
2023/06/15 09:59:14;;;;;;;7.43;2.35;;;24.40;80.00;;;;;;5000210;28;20392;-73
2023/06/15 10:01:44;;;;;;;6.43;2.50;;;24.40;79.60;;;;;;5000995;28;20037;-74
2023/06/15 10:04:10;;;;;;;8.45;2.40;;;24.40;79.00;;;;;;5027529;28;20049;-74
2023/06/15 10:06:37;;;;;;;4.90;2.20;;;24.40;80.50;;;;;;4997538;28;20065;-74
2023/06/15 10:09:06;;;;;;;6.43;2.20;;;24.40;82.50;;;;;;4996658;28;20050;-74
2023/06/15 10:11:36;;;;;;;5.38;2.28;;;24.50;82.20;;;;;;4995720;28;20167;-74
2023/06/15 10:14:43;;;;;;;7.00;2.35;;;24.60;79.80;;;;;;5002240;28;21147;-73
2023/06/15 10:17:11;;;;;;;7.65;2.25;;;24.60;79.20;;;;;;4968531;28;20055;-73
2023/06/15 10:19:43;;;;;;;5.30;2.30;;;24.60;79.80;;;;;;4994140;28;20129;-74
2023/06/15 10:22:15;;;;;;;7.78;2.03;;;24.60;77.20;;;;;;5031837;28;20046;-75
2023/06/15 10:24:43;;;;;;;5.30;2.10;;;24.70;76.70;;;;;;5002589;28;20061;-74
2023/06/15 10:27:09;;;;;;;6.13;2.53;;;24.70;78.20;;;;;;5001722;28;20193;-73
2023/06/15 10:29:44;;;;;;;7.68;2.55;;;24.70;73.50;;;;;;5001526;28;20042;-74
2023/06/15 10:32:14;;;;;;;4.97;2.03;;;24.70;74.50;;;;;;4996799;28;20046;-73
2023/06/15 10:35:16;;;;;;;6.03;2.35;;;24.70;75.60;;;;;;4997864;28;20115;-74
2023/06/15 10:38:11;;;;;;;5.90;2.13;;;24.70;76.80;;;;;;4999001;28;20058;-73
2023/06/15 10:40:47;;;;;;;4.93;2.13;;;24.80;76.40;;;;;;5001610;28;20112;-74
2023/06/15 10:43:20;;;;;;;4.40;2.17;;;24.80;75.10;;;;;;4990131;28;20086;-74
2023/06/15 10:45:47;;;;;;;6.53;2.20;;;24.80;76.50;;;;;;5002464;28;20056;-73
2023/06/15 10:48:26;;;;;;;6.38;2.30;;;24.80;73.90;;;;;;5035666;28;20046;-74
2023/06/15 10:51:01;;;;;;;6.05;2.45;;;24.80;74.40;;;;;;4999931;28;20050;-73
2023/06/15 10:53:28;;;;;;;6.75;2.80;;;24.90;74.90;;;;;;5030393;28;20137;-73
2023/06/15 10:55:58;;;;;;;6.25;2.53;;;24.90;72.20;;;;;;5003711;28;20042;-73
2023/06/15 10:58:28;;;;;;;;;;;24.90;74.10;;;;;;5001152;28;20552;-74
2023/06/15 11:01:11;;;;;;;7.00;2.40;;;24.90;70.60;;;;;;5001941;28;19932;-74
2023/06/15 11:03:40;;;;;;;4.18;2.08;;;24.80;72.90;;;;;;5003330;28;20049;-74
2023/06/15 11:06:13;;;;;;;4.70;2.50;;;24.80;74.20;;;;;;5001065;28;20069;-75
2023/06/15 11:08:52;;;;;;;8.95;2.63;;;24.90;72.90;;;;;;5034553;28;20049;-74
2023/06/15 11:11:31;;;;;;;7.82;2.50;;;25.00;71.90;;;;;;4999280;28;20052;-74
2023/06/15 11:14:04;;;;;;;5.68;2.40;;;25.10;71.70;;;;;;4994534;28;20050;-71
2023/06/15 11:16:35;;;;;;;6.00;2.42;;;25.00;70.40;;;;;;4997621;28;20048;-74
2023/06/15 11:19:15;;;;;;;4.03;2.15;;;25.00;70.40;;;;;;5025858;28;20046;-73
2023/06/15 11:21:50;;;;;;;;;;;25.00;69.20;;;;;;4998241;28;20052;-74
2023/06/15 11:24:16;;;;;;;6.63;2.47;;;25.00;70.90;;;;;;5000893;28;20335;-73
2023/06/15 11:26:43;;;;;;;7.55;2.20;;;25.00;70.30;;;;;;5000769;28;20042;-73
2023/06/15 11:29:12;;;;;;;5.78;2.20;;;25.00;69.10;;;;;;5004150;28;20450;-73
2023/06/15 11:31:40;;;;;;;4.35;2.10;;;25.10;69.80;;;;;;4994714;28;20042;-74
2023/06/15 11:34:09;;;;;;;5.88;2.10;;;25.10;70.00;;;;;;5031476;28;20037;-73
2023/06/15 11:36:36;;;;;;;7.18;2.00;;;25.20;69.80;;;;;;5033835;28;20053;-74
2023/06/15 11:39:04;;;;;;;6.70;2.50;;;25.20;70.10;;;;;;5036938;28;20400;-74
2023/06/15 11:41:30;;;;;;;5.13;2.28;;;25.30;68.90;;;;;;5033188;28;20042;-73
2023/06/15 11:43:57;;;;;;;6.00;2.38;;;25.30;70.20;;;;;;5000189;28;20037;-73
2023/06/15 11:46:25;;;;;;;5.82;2.67;;;25.40;69.70;;;;;;4999088;28;20034;-73
2023/06/15 11:48:55;;;;;;;4.47;1.90;;;25.50;68.50;;;;;;4999813;28;20588;-73
2023/06/15 11:51:21;;;;;;;5.30;2.30;;;25.50;67.80;;;;;;4998670;28;20126;-74
2023/06/15 11:53:47;;;;;;;4.78;2.05;;;25.50;66.40;;;;;;4996430;28;20050;-74
2023/06/15 11:56:15;;;;;;;4.82;2.10;;;25.50;67.60;;;;;;5000258;28;20034;-74
2023/06/15 11:58:46;;;;;;;5.47;2.35;;;25.40;67.10;;;;;;4999896;28;20069;-74
2023/06/15 12:01:13;;;;;;;11.82;2.58;;;25.40;65.70;;;;;;4979952;28;20049;-74
2023/06/15 12:03:44;;;;;;;6.47;2.38;;;25.40;67.80;;;;;;4982817;28;20052;-74
2023/06/15 12:06:16;;;;;;;5.88;2.03;;;25.40;66.80;;;;;;4999429;28;20207;-74
2023/06/15 12:08:43;;;;;;;5.70;2.25;;;25.40;68.90;;;;;;5019879;28;20052;-74
2023/06/15 12:11:08;;;;;;;6.80;2.10;;;25.50;68.90;;;;;;4999554;28;20149;-74
2023/06/15 12:13:39;;;;;;;7.32;2.30;;;25.50;68.20;;;;;;4998174;28;20125;-73
2023/06/15 12:16:05;;;;;;;6.30;2.35;;;25.60;66.60;;;;;;5004018;28;20037;-73
2023/06/15 12:18:31;;;;;;;7.80;2.13;;;25.60;66.10;;;;;;4997123;28;20095;-74
2023/06/15 12:20:56;;;;;;;7.43;2.42;;;25.60;67.90;;;;;;5024399;28;20398;-73
2023/06/15 12:23:30;;;;;;;5.97;2.50;;;25.60;68.50;;;;;;5001454;28;20056;-73
2023/06/15 12:25:56;;;;;;;6.55;2.30;;;25.50;69.40;;;;;;4999513;28;20042;-72
2023/06/15 12:28:26;;;;;;;9.10;2.30;;;25.50;70.70;;;;;;4980814;28;20115;-72
2023/06/15 12:31:04;;;;;;;5.50;2.10;;;25.60;70.30;;;;;;5000940;28;20045;-74
2023/06/15 12:33:31;;;;;;;5.38;2.40;;;25.50;68.20;;;;;;4996491;28;20050;-73
2023/06/15 12:35:59;;;;;;;5.60;2.33;;;25.40;65.50;;;;;;5027951;28;20470;-73
2023/06/15 12:38:27;;;;;;;8.18;2.42;;;25.40;68.80;;;;;;5014982;28;20104;-73
2023/06/15 12:40:53;;;;;;;4.32;2.10;;;25.50;69.80;;;;;;4991283;28;20046;-73
2023/06/15 12:43:20;;;;;;;4.75;2.30;;;25.50;68.40;;;;;;5008244;28;20446;-73
2023/06/15 12:45:46;;;;;;;10.30;2.78;;;25.50;69.90;;;;;;4997524;28;20049;-73
2023/06/15 12:48:12;;;;;;;7.03;2.20;;;25.60;69.80;;;;;;5001357;28;20045;-73